Time;durP1;ratioP1;P1;durP2;ratioP2;P2;SDS_P1;SDS_P2;PMS_P1;PMS_P2;Temp;Humidity;BMP_temperature;BMP_pressure;BME280_temperature;BME280_humidity;BME280_pressure;Samples;Min_cycle;Max_cycle;Signal;HPM_P1;HPM_P2
2022/03/10 00:00:23;;;;;;;32.05;13.18;;;;;;;-1.60;63.27;99464.03;1672492;81;21210;31
2022/03/10 00:02:52;;;;;;;35.83;12.20;;;;;;;-1.61;64.89;99462.73;1668885;81;21130;31
2022/03/10 00:05:19;;;;;;;49.38;16.75;;;;;;;-1.59;65.14;99452.17;1751078;82;21067;-81
2022/03/10 00:07:46;;;;;;;48.33;16.52;;;;;;;-1.60;65.25;99455.11;1749415;82;21002;-80
2022/03/10 00:10:13;;;;;;;48.45;16.27;;;;;;;-1.57;66.75;99456.02;1749516;82;21190;-81
2022/03/10 00:12:50;;;;;;;48.33;16.02;;;;;;;-1.54;65.95;99455.70;1758462;82;21030;-81
2022/03/10 00:15:23;;;;;;;57.20;15.90;;;;;;;-1.48;66.24;99461.39;1728231;83;21039;-82
2022/03/10 00:17:51;;;;;;;41.35;14.80;;;;;;;-1.46;66.56;99459.34;1728625;83;21050;-83
2022/03/10 00:20:18;;;;;;;32.93;13.60;;;;;;;-1.45;66.50;99462.36;1758391;82;21042;-83
2022/03/10 00:22:47;;;;;;;30.32;12.98;;;;;;;-1.43;66.81;99464.95;1758121;81;21027;-82
2022/03/10 00:25:15;;;;;;;36.00;13.72;;;;;;;-1.47;65.46;99460.17;1752632;82;21024;-81
2022/03/10 00:27:42;;;;;;;32.25;13.83;;;;;;;-1.52;65.69;99456.61;1743500;82;21062;-82
2022/03/10 00:30:10;;;;;;;31.07;13.05;;;;;;;-1.52;65.46;99467.23;1743532;82;21025;-83
2022/03/10 00:32:45;;;;;;;35.85;14.05;;;;;;;-1.58;65.64;99460.67;1743621;82;20997;-83
2022/03/10 00:35:19;;;;;;;38.78;15.43;;;;;;;-1.56;64.55;99462.86;1773583;80;20944;-81
2022/03/10 00:37:46;;;;;;;;;;;;;;;-1.59;66.26;99457.27;1760104;80;21018;-83
2022/03/10 00:40:14;;;;;;;36.53;14.43;;;;;;;-1.59;65.59;99463.64;1751638;82;20138;-81
2022/03/10 00:42:42;;;;;;;38.28;15.72;;;;;;;-1.64;66.07;99463.91;1758347;82;21003;-82
2022/03/10 00:45:11;;;;;;;33.08;16.12;;;;;;;-1.66;66.48;99465.55;1758323;81;20938;-81
2022/03/10 00:47:38;;;;;;;37.58;16.48;;;;;;;-1.64;66.19;99465.18;1758459;82;21031;-82
2022/03/10 00:50:06;;;;;;;38.17;15.28;;;;;;;-1.64;64.82;99466.03;1777518;81;21011;-82
2022/03/10 00:52:35;;;;;;;38.73;16.67;;;;;;;-1.66;64.79;99468.09;1765756;80;20981;-83
2022/03/10 00:55:02;;;;;;;37.88;14.70;;;;;;;-1.66;66.94;99470.22;1724222;82;21034;-83
2022/03/10 00:57:28;;;;;;;39.23;14.93;;;;;;;-1.63;65.16;99466.92;1724487;82;21351;-82
2022/03/10 00:59:54;;;;;;;37.98;16.25;;;;;;;-1.63;66.12;99472.02;1723540;81;21041;-83
2022/03/10 01:02:21;;;;;;;29.95;13.18;;;;;;;-1.61;64.73;99470.39;1693009;81;21017;-82
2022/03/10 01:04:47;;;;;;;29.90;13.20;;;;;;;-1.62;65.63;99473.73;1701009;83;21095;-82
2022/03/10 01:07:14;;;;;;;26.50;12.50;;;;;;;-1.61;64.77;99469.11;1701794;83;21079;-81
2022/03/10 01:09:40;;;;;;;37.00;13.03;;;;;;;-1.60;65.98;99472.09;1701700;83;21047;-81
2022/03/10 01:12:07;;;;;;;38.15;15.88;;;;;;;-1.56;65.85;99472.64;1701808;84;20988;-82
2022/03/10 01:14:34;;;;;;;32.23;13.35;;;;;;;-1.52;67.43;99475.73;1701720;83;21040;-83
2022/03/10 01:17:00;;;;;;;31.35;12.53;;;;;;;-1.49;66.39;99474.56;1721462;83;21054;-81
2022/03/10 01:19:27;;;;;;;32.25;14.00;;;;;;;-1.47;67.61;99475.47;1729636;83;21016;-83
2022/03/10 01:21:54;;;;;;;36.95;14.55;;;;;;;-1.45;67.07;99471.70;1729337;83;21007;-83
2022/03/10 01:24:20;;;;;;;36.17;13.78;;;;;;;-1.45;66.02;99484.45;1723344;83;21008;-82
2022/03/10 01:26:48;;;;;;;28.95;12.00;;;;;;;-1.49;67.60;99477.50;1701649;84;21270;-81
2022/03/10 01:29:17;;;;;;;35.50;13.50;;;;;;;-1.47;67.87;99480.99;1701568;84;21027;-81
2022/03/10 01:31:45;;;;;;;38.63;14.98;;;;;;;-1.46;66.17;99482.70;1709416;83;21023;-83
2022/03/10 01:34:13;;;;;;;34.35;13.85;;;;;;;-1.52;66.41;99476.16;1714220;83;21040;-82
2022/03/10 01:36:41;;;;;;;35.45;16.32;;;;;;;-1.54;67.51;99486.30;1720408;83;21038;-82
2022/03/10 01:39:08;;;;;;;37.55;15.10;;;;;;;-1.54;66.98;99490.13;1700972;84;20961;-82
2022/03/10 01:41:35;;;;;;;40.17;14.90;;;;;;;-1.55;66.76;99498.61;1700903;84;21055;-82
2022/03/10 01:44:09;;;;;;;35.03;15.15;;;;;;;-1.53;65.94;99490.59;1705560;84;21031;-81
2022/03/10 01:49:17;;;;;;;30.25;11.70;;;;;;;-1.75;68.22;99490.75;1661734;86;21178;-81
2022/03/10 01:51:44;;;;;;;24.57;10.50;;;;;;;-1.80;67.65;99495.30;1665407;86;21098;-82
2022/03/10 01:54:11;;;;;;;23.57;10.30;;;;;;;-1.85;67.03;99507.05;1644953;87;21458;-82
2022/03/10 01:56:39;;;;;;;19.73;8.63;;;;;;;-1.93;67.72;99515.26;1638974;86;21012;-82
2022/03/10 01:59:06;;;;;;;22.27;9.03;;;;;;;-1.96;68.06;99521.13;1678585;83;21024;-81
2022/03/10 02:01:34;;;;;;;29.80;9.80;;;;;;;-1.94;66.84;99525.87;1637784;86;21043;-82
2022/03/10 02:04:01;;;;;;;18.20;7.53;;;;;;;-2.00;67.58;99526.95;1647396;86;21018;-81
2022/03/10 02:06:28;;;;;;;24.52;9.98;;;;;;;-2.01;67.61;99527.75;1651586;83;21181;-80
2022/03/10 02:11:40;;;;;;;21.65;9.90;;;;;;;-2.03;68.16;99545.56;1693660;85;21063;-81
2022/03/10 02:19:37;;;;;;;17.98;8.43;;;;;;;-2.07;67.12;99556.47;1710601;82;21034;-81
2022/03/10 02:22:13;;;;;;;25.08;10.38;;;;;;;-2.11;68.30;99557.56;1738137;82;21040;-81
2022/03/10 02:24:43;;;;;;;19.60;8.73;;;;;;;-2.09;67.73;99560.65;1737239;82;21019;-81
2022/03/10 02:27:19;;;;;;;22.70;8.10;;;;;;;-2.04;66.90;99567.16;1693749;84;21075;-82
2022/03/10 02:29:48;;;;;;;18.15;7.58;;;;;;;-2.08;67.33;99569.15;1698325;83;21019;-81
2022/03/10 02:32:16;;;;;;;19.62;8.40;;;;;;;-2.06;67.33;99577.30;1724798;83;21015;-81
2022/03/10 02:34:44;;;;;;;22.98;9.10;;;;;;;-2.06;67.84;99584.94;1722547;83;21028;-81
2022/03/10 02:37:11;;;;;;;21.20;8.65;;;;;;;-2.02;66.61;99578.27;1741292;82;21032;-81
2022/03/10 02:39:40;;;;;;;18.60;8.50;;;;;;;-2.06;67.40;99581.53;1724306;82;21100;-81
2022/03/10 02:42:07;;;;;;;21.15;8.80;;;;;;;-2.04;66.65;99593.50;1707683;84;21084;-81
2022/03/10 02:44:40;;;;;;;21.30;9.08;;;;;;;-2.05;66.86;99588.34;1714000;83;21046;-81
2022/03/10 02:47:07;;;;;;;24.50;9.55;;;;;;;-2.04;66.96;99590.09;1708448;82;21007;-80
2022/03/10 02:49:33;;;;;;;25.95;10.48;;;;;;;-2.06;67.10;99593.00;1732291;82;21091;-81
2022/03/10 02:52:03;;;;;;;15.95;8.35;;;;;;;-2.05;67.00;99594.71;1722581;83;20940;-80
2022/03/10 02:54:30;;;;;;;32.67;10.65;;;;;;;-2.11;67.34;99600.88;1722051;83;21023;-81
2022/03/10 02:56:58;;;;;;;26.17;9.63;;;;;;;-2.11;66.71;99599.61;1716874;83;21554;-81
2022/03/10 02:59:26;;;;;;;21.82;9.18;;;;;;;-2.15;67.73;99609.23;1721728;83;21012;-81
2022/03/10 03:01:55;;;;;;;23.83;10.50;;;;;;;-2.13;67.00;99610.16;1708541;82;21017;-81
2022/03/10 03:04:21;;;;;;;20.50;8.88;;;;;;;-2.11;67.00;99614.51;1710901;83;21079;-81
2022/03/10 03:06:48;;;;;;;26.80;10.40;;;;;;;-2.12;66.91;99619.13;1680019;83;21091;-81
2022/03/10 03:09:14;;;;;;;20.43;8.73;;;;;;;-2.16;67.94;99619.84;1703979;81;20982;-81
2022/03/10 03:11:40;;;;;;;23.85;10.48;;;;;;;-2.11;66.82;99621.26;1688001;85;21032;-81
2022/03/10 03:14:07;;;;;;;19.25;9.28;;;;;;;-2.10;66.86;99627.69;1687879;83;21028;-82
2022/03/10 03:16:34;;;;;;;22.20;8.53;;;;;;;-2.08;66.94;99631.57;1688179;83;20989;-82
2022/03/10 03:19:00;;;;;;;25.25;9.73;;;;;;;-2.06;67.61;99635.03;1685698;83;21020;-82
2022/03/10 03:21:27;;;;;;;24.15;10.50;;;;;;;-2.03;67.39;99637.67;1658544;86;21040;-81
2022/03/10 03:23:54;;;;;;;20.37;7.78;;;;;;;-2.01;68.02;99634.38;1682651;85;21016;-81
2022/03/10 03:26:20;;;;;;;23.27;8.67;;;;;;;-1.94;66.77;99638.41;1660352;83;21044;-82
2022/03/10 03:28:46;;;;;;;15.72;7.00;;;;;;;-1.95;67.10;99640.48;1676812;84;21008;-82
2022/03/10 03:31:13;;;;;;;20.85;9.03;;;;;;;-1.94;66.61;99637.99;1673816;83;21528;-81
2022/03/10 03:33:40;;;;;;;20.00;8.83;;;;;;;-1.93;66.57;99644.84;1659853;85;21067;-81
2022/03/10 03:36:07;;;;;;;18.35;8.70;;;;;;;-1.94;66.51;99656.25;1686947;81;21407;-82
2022/03/10 03:38:34;;;;;;;27.30;8.35;;;;;;;-1.95;66.68;99664.31;1695768;85;21532;-80
2022/03/10 03:41:00;;;;;;;19.00;8.38;;;;;;;-1.95;66.66;99665.97;1671548;84;21015;-81
2022/03/10 03:43:27;;;;;;;31.45;9.78;;;;;;;-1.94;66.37;99668.58;1683441;85;21039;-81
2022/03/10 03:45:56;;;;;;;19.32;7.75;;;;;;;-1.91;66.29;99673.79;1692283;83;20978;-82
2022/03/10 03:48:24;;;;;;;17.77;6.92;;;;;;;-1.91;66.12;99673.79;1680727;85;21575;-81
2022/03/10 03:50:51;;;;;;;26.77;9.45;;;;;;;-1.83;65.65;99678.73;1669011;84;21083;-80
2022/03/10 03:53:18;;;;;;;16.50;6.05;;;;;;;-1.85;65.73;99680.36;1676595;85;21469;-80
2022/03/10 03:55:45;;;;;;;17.37;6.55;;;;;;;-1.79;64.92;99688.63;1685113;84;20997;-81
2022/03/10 03:58:11;;;;;;;32.58;7.78;;;;;;;-1.84;64.71;99692.28;1678983;84;20979;-81
2022/03/10 04:00:38;;;;;;;19.92;7.35;;;;;;;-1.83;64.80;99692.75;1686219;85;20953;-81
2022/03/10 04:03:09;;;;;;;17.82;6.55;;;;;;;-1.78;64.50;99699.69;1687912;84;21044;-81
2022/03/10 04:05:37;;;;;;;23.12;6.78;;;;;;;-1.77;64.68;99701.41;1677023;85;21032;-81
2022/03/10 04:08:04;;;;;;;15.10;6.83;;;;;;;-1.74;64.53;99704.94;1680503;85;21051;-80
2022/03/10 04:10:31;;;;;;;13.18;6.45;;;;;;;-1.71;63.93;99701.23;1675109;84;21064;-81
2022/03/10 04:12:58;;;;;;;19.62;6.33;;;;;;;-1.68;63.92;99706.83;1682325;83;21011;-81
2022/03/10 04:15:25;;;;;;;14.07;5.72;;;;;;;-1.67;63.29;99710.71;1684403;85;21015;-81
2022/03/10 04:17:52;;;;;;;13.65;5.47;;;;;;;-1.65;63.08;99714.18;1720743;82;21544;-80
2022/03/10 04:20:18;;;;;;;13.38;5.80;;;;;;;-1.62;62.17;99716.81;1722374;83;21040;-81
2022/03/10 04:22:45;;;;;;;15.58;5.22;;;;;;;-1.60;62.68;99715.59;1693544;83;21024;-82
2022/03/10 04:25:11;;;;;;;14.43;5.70;;;;;;;-1.53;62.87;99719.20;1697824;85;20975;-81
2022/03/10 04:27:38;;;;;;;12.18;5.60;;;;;;;-1.53;61.13;99718.82;1687543;84;21032;-81
2022/03/10 04:30:05;;;;;;;23.30;7.55;;;;;;;-1.55;61.39;99720.84;1658294;85;20997;-82
2022/03/10 04:32:46;;;;;;;18.10;5.58;;;;;;;-1.55;61.67;99721.73;1688905;84;21010;-82
2022/03/10 04:35:16;;;;;;;13.75;5.58;;;;;;;-1.52;61.13;99722.23;1670303;85;21107;-81
2022/03/10 04:37:45;;;;;;;10.43;4.90;;;;;;;-1.48;61.70;99721.52;1674324;84;20989;-81
2022/03/10 04:40:11;;;;;;;12.05;5.85;;;;;;;-1.48;60.96;99724.06;1658544;85;21115;-80
2022/03/10 04:42:39;;;;;;;14.87;6.97;;;;;;;-1.47;61.35;99723.27;1698218;84;21031;-81
2022/03/10 04:45:07;;;;;;;15.53;5.97;;;;;;;-1.53;61.24;99723.92;1685840;85;21315;-82
2022/03/10 04:47:35;;;;;;;11.70;5.67;;;;;;;-1.57;61.47;99725.02;1698215;83;21059;-81
2022/03/10 04:50:05;;;;;;;15.72;6.45;;;;;;;-1.55;61.53;99727.22;1695748;83;20973;-81
2022/03/10 04:52:33;;;;;;;20.72;5.20;;;;;;;-1.58;61.75;99734.78;1685919;82;21140;-81
2022/03/10 04:54:59;;;;;;;15.32;5.35;;;;;;;-1.62;61.81;99728.70;1676364;84;21016;-81
2022/03/10 04:57:26;;;;;;;22.98;7.08;;;;;;;-1.62;62.02;99736.35;1656645;86;22237;-81
2022/03/10 04:59:53;;;;;;;14.15;5.92;;;;;;;-1.62;62.07;99741.03;1695593;85;21004;-81
2022/03/10 05:02:19;;;;;;;18.05;5.45;;;;;;;-1.62;62.02;99736.35;1685641;84;21062;-82
2022/03/10 05:04:46;;;;;;;15.48;6.05;;;;;;;-1.65;62.49;99742.61;1686201;85;21051;-82
2022/03/10 05:07:13;;;;;;;15.38;6.25;;;;;;;-1.59;62.02;99745.39;1693164;83;21067;-80
2022/03/10 05:09:40;;;;;;;20.02;6.55;;;;;;;-1.62;62.00;99747.83;1672524;84;21035;-82
2022/03/10 05:12:07;;;;;;;11.38;5.75;;;;;;;-1.57;62.06;99753.07;1674483;84;21129;-82
2022/03/10 05:14:33;;;;;;;16.85;6.70;;;;;;;-1.57;61.74;99757.79;1700287;84;21044;-81
2022/03/10 05:17:00;;;;;;;12.70;5.33;;;;;;;-1.55;61.72;99753.98;1700357;84;21020;-81
2022/03/10 05:19:26;;;;;;;17.05;5.47;;;;;;;-1.56;61.69;99763.33;1693202;84;21043;-80
2022/03/10 05:21:53;;;;;;;12.07;5.53;;;;;;;-1.55;61.90;99765.47;1696187;84;21019;-81
2022/03/10 05:24:19;;;;;;;12.10;5.50;;;;;;;-1.54;61.87;99771.90;1692669;83;21044;-81
2022/03/10 05:26:45;;;;;;;15.30;6.30;;;;;;;-1.48;61.87;99773.80;1707987;83;21067;-81
2022/03/10 05:29:12;;;;;;;16.40;6.35;;;;;;;-1.47;61.79;99775.55;1724825;82;21019;-81
2022/03/10 05:31:39;;;;;;;24.20;8.33;;;;;;;-1.44;61.87;99785.84;1704252;83;20996;-81
2022/03/10 05:34:07;;;;;;;15.45;6.60;;;;;;;-1.39;61.81;99781.77;1705491;84;21654;-80
2022/03/10 05:36:34;;;;;;;16.87;6.78;;;;;;;-1.37;61.76;99789.06;1695713;84;21008;-81
2022/03/10 05:39:01;;;;;;;27.35;13.13;;;;;;;-1.39;61.89;99785.59;1671956;85;21025;-79
2022/03/10 05:41:33;;;;;;;16.32;9.08;;;;;;;-1.40;62.40;99792.36;1675044;85;21026;-80
2022/03/10 05:44:00;;;;;;;18.77;8.58;;;;;;;-1.31;61.94;99802.03;1683106;84;21024;-80
2022/03/10 05:46:26;;;;;;;18.15;7.72;;;;;;;-1.37;62.21;99797.99;1701695;83;21020;-81
2022/03/10 05:48:53;;;;;;;22.22;8.23;;;;;;;-1.34;62.22;99801.91;1700321;84;21017;-82
2022/03/10 05:51:20;;;;;;;20.95;8.60;;;;;;;-1.27;62.37;99800.03;1689780;83;21027;-81
2022/03/10 05:53:50;;;;;;;24.50;10.35;;;;;;;-1.22;62.41;99804.00;1672295;86;21053;-81
2022/03/10 05:56:18;;;;;;;18.85;7.97;;;;;;;-1.12;62.73;99810.28;1673950;83;21070;-80
2022/03/10 05:58:45;;;;;;;25.40;12.37;;;;;;;-1.04;62.54;99813.54;1719525;83;21027;-81
2022/03/10 06:01:13;;;;;;;36.13;13.15;;;;;;;-0.98;62.86;99817.13;1700175;84;21031;-81
2022/03/10 06:03:40;;;;;;;31.45;11.60;;;;;;;-0.94;63.57;99820.23;1675161;84;20996;-79
2022/03/10 06:06:07;;;;;;;29.55;10.28;;;;;;;-0.89;63.02;99822.12;1700049;84;21024;-81
2022/03/10 06:08:33;;;;;;;33.30;11.28;;;;;;;-0.90;62.84;99831.86;1711742;83;21079;-79
2022/03/10 06:11:01;;;;;;;26.50;10.03;;;;;;;-0.90;63.76;99820.79;1722278;83;21039;-81
2022/03/10 06:13:27;;;;;;;26.30;11.45;;;;;;;-0.94;65.12;99822.37;1722522;83;20961;-81
2022/03/10 06:15:54;;;;;;;28.80;11.00;;;;;;;-0.89;63.81;99827.23;1699341;83;20989;-81
2022/03/10 06:18:20;;;;;;;26.37;11.55;;;;;;;-0.88;64.38;99830.22;1685886;84;21167;-81
2022/03/10 06:20:46;;;;;;;35.88;13.30;;;;;;;-0.81;63.86;99830.03;1674902;83;21072;-80
2022/03/10 06:23:13;;;;;;;32.28;11.85;;;;;;;-0.83;64.72;99834.23;1704681;83;20952;-81
2022/03/10 06:25:39;;;;;;;25.45;10.95;;;;;;;-0.85;64.89;99835.86;1708445;83;21017;-81
2022/03/10 06:28:06;;;;;;;24.10;9.45;;;;;;;-0.81;64.39;99837.28;1685688;84;21044;-81
2022/03/10 06:30:34;;;;;;;31.07;13.18;;;;;;;-0.76;63.54;99837.83;1659926;84;20982;-81
2022/03/10 06:33:00;;;;;;;20.80;10.55;;;;;;;-0.78;64.39;99837.78;1664305;84;21001;-81
2022/03/10 06:35:26;;;;;;;22.45;10.00;;;;;;;-0.75;63.48;99848.10;1702767;84;21060;-81
2022/03/10 06:37:53;;;;;;;19.62;7.37;;;;;;;-0.74;63.24;99851.09;1702810;80;21052;-82
2022/03/10 06:40:19;;;;;;;23.92;8.90;;;;;;;-0.71;63.23;99846.52;1702759;84;21062;-81
2022/03/10 06:42:46;;;;;;;23.38;9.23;;;;;;;-0.69;62.81;99855.09;1702520;80;21040;-82
2022/03/10 06:45:12;;;;;;;26.40;10.28;;;;;;;-0.67;62.41;99861.13;1693228;84;21055;-79
2022/03/10 06:47:40;;;;;;;23.92;8.75;;;;;;;-0.70;63.74;99865.70;1670149;83;21359;-82
2022/03/10 06:50:07;;;;;;;21.80;8.98;;;;;;;-0.73;62.80;99868.17;1661724;83;21673;-81
2022/03/10 06:52:34;;;;;;;21.55;9.43;;;;;;;-0.77;63.46;99866.34;1698004;83;21022;-82
2022/03/10 06:55:01;;;;;;;25.68;10.43;;;;;;;-0.78;63.43;99869.69;1670308;80;21111;-82
2022/03/10 06:57:27;;;;;;;21.70;9.35;;;;;;;-0.80;64.38;99867.50;1651315;81;21125;-82
2022/03/10 06:59:54;;;;;;;28.57;9.13;;;;;;;-0.81;64.37;99872.16;1679799;82;21014;-82
2022/03/10 07:02:20;;;;;;;23.90;9.58;;;;;;;-0.79;63.91;99878.19;1674653;82;21037;-82
2022/03/10 07:04:47;;;;;;;18.32;8.08;;;;;;;-0.72;63.81;99880.52;1686102;84;21079;-83
2022/03/10 07:07:13;;;;;;;25.30;9.15;;;;;;;-0.69;63.87;99880.64;1671214;84;21120;-82
2022/03/10 07:09:41;;;;;;;26.05;9.90;;;;;;;-0.61;62.74;99887.72;1665834;83;21081;-83
2022/03/10 07:12:09;;;;;;;14.93;6.58;;;;;;;-0.64;62.53;99887.63;1644843;83;21039;-82
2022/03/10 07:14:35;;;;;;;19.00;7.50;;;;;;;-0.61;62.15;99888.99;1646326;83;21066;-83
2022/03/10 07:17:02;;;;;;;18.35;7.50;;;;;;;-0.57;60.39;99901.46;1713335;80;21099;-83
2022/03/10 07:25:01;;;;;;;21.33;6.97;;;;;;;-0.31;59.66;99910.37;1713117;79;21122;-79
2022/03/10 07:27:28;;;;;;;22.10;6.92;;;;;;;-0.34;56.14;99904.73;1705637;80;21459;-82
2022/03/10 07:32:57;;;;;;;10.70;5.75;;;;;;;-0.24;57.41;99914.84;1707153;81;21164;-82
2022/03/10 07:35:30;;;;;;;8.50;4.05;;;;;;;-0.11;57.54;99911.00;1685837;81;21169;31
2022/03/10 07:37:59;;;;;;;9.70;4.95;;;;;;;-0.06;57.05;99914.16;1676195;84;21598;-81
2022/03/10 07:40:26;;;;;;;11.05;4.83;;;;;;;0.03;56.10;99912.28;1688755;82;21084;-82
2022/03/10 07:42:53;;;;;;;7.47;3.65;;;;;;;0.13;56.48;99917.26;1713334;83;21043;-83
2022/03/10 07:45:19;;;;;;;10.25;4.33;;;;;;;0.12;52.70;99920.23;1659258;84;21045;-84
2022/03/10 07:47:46;;;;;;;10.80;4.65;;;;;;;0.14;52.89;99921.15;1690950;80;21115;-84
2022/03/10 07:50:13;;;;;;;11.10;5.30;;;;;;;0.18;53.79;99924.25;1690088;85;20980;-84
2022/03/10 07:52:40;;;;;;;13.65;4.67;;;;;;;0.30;53.98;99919.02;1670135;86;21035;-83
2022/03/10 07:55:08;;;;;;;9.95;4.37;;;;;;;0.27;52.42;99925.34;1671246;83;21022;-84
2022/03/10 07:57:36;;;;;;;8.20;3.85;;;;;;;0.35;53.76;99927.71;1672132;82;20996;-83
2022/03/10 08:00:06;;;;;;;10.43;4.17;;;;;;;0.35;52.74;99922.59;1685739;84;21088;-84
2022/03/10 08:02:38;;;;;;;14.87;5.25;;;;;;;0.36;51.89;99926.48;1686278;84;21055;-83
2022/03/10 08:05:06;;;;;;;11.70;3.87;;;;;;;0.45;53.47;99928.85;1679885;81;21132;-82
2022/03/10 08:07:35;;;;;;;8.75;3.95;;;;;;;0.56;52.65;99926.20;1663889;84;21029;-83
2022/03/10 08:10:04;;;;;;;7.05;3.67;;;;;;;0.60;51.90;99929.30;1643857;86;21037;-82
2022/03/10 08:12:33;;;;;;;13.58;4.75;;;;;;;0.65;50.21;99929.00;1660908;86;20981;-83
2022/03/10 08:15:00;;;;;;;12.73;4.42;;;;;;;0.71;48.91;99923.19;1657680;85;21020;-82
2022/03/10 08:17:27;;;;;;;9.98;4.42;;;;;;;0.78;51.85;99923.41;1653641;84;21104;-86
2022/03/10 08:19:55;;;;;;;7.92;3.58;;;;;;;0.81;50.69;99923.03;1652406;84;21029;-85
2022/03/10 08:22:27;;;;;;;8.10;3.95;;;;;;;0.84;51.18;99923.98;1646622;86;21072;-83
2022/03/10 08:24:51;;;;;;;7.95;3.58;;;;;;;0.87;50.69;99925.75;1661536;86;21020;-84
2022/03/10 08:29:59;;;;;;;7.87;3.45;;;;;;;0.87;50.61;99929.17;1703191;81;21049;-81
2022/03/10 08:32:26;;;;;;;9.33;3.47;;;;;;;0.94;50.10;99930.23;1651775;82;21215;-83
2022/03/10 08:34:53;;;;;;;11.20;3.75;;;;;;;0.89;49.18;99922.41;1626278;81;21092;-76
2022/03/10 08:37:19;;;;;;;11.55;3.85;;;;;;;0.91;50.80;99929.71;1638112;84;21170;-82
2022/03/10 08:39:46;;;;;;;8.63;3.50;;;;;;;0.97;50.47;99936.27;1622168;88;21074;-83
2022/03/10 08:42:12;;;;;;;10.58;3.67;;;;;;;1.03;50.69;99927.03;1639630;87;21586;-83
2022/03/10 08:44:39;;;;;;;8.28;3.58;;;;;;;1.09;49.52;99935.73;1620759;88;21043;-83
2022/03/10 08:47:06;;;;;;;7.90;3.42;;;;;;;1.14;49.93;99935.45;1680768;80;21180;-81
2022/03/10 08:49:33;;;;;;;7.95;3.33;;;;;;;1.14;47.94;99936.73;1690816;83;20998;-83
2022/03/10 08:51:59;;;;;;;7.55;2.95;;;;;;;1.18;46.65;99938.97;1674961;85;21352;-81
2022/03/10 08:54:27;;;;;;;7.70;3.00;;;;;;;1.23;47.55;99945.48;1668569;82;21146;31
2022/03/10 08:59:59;;;;;;;7.75;4.08;;;;;;;1.27;45.96;99935.34;1706987;81;21186;31
2022/03/10 09:02:25;;;;;;;5.17;2.80;;;;;;;1.36;47.93;99938.16;1645430;86;21063;-81
2022/03/10 09:04:52;;;;;;;6.70;3.05;;;;;;;1.48;47.63;99936.74;1673846;85;21016;-83
2022/03/10 09:07:18;;;;;;;5.97;2.85;;;;;;;1.52;44.85;99933.42;1656145;83;21040;-84
2022/03/10 09:09:44;;;;;;;5.67;2.58;;;;;;;1.59;46.34;99940.42;1669354;84;21063;-81
2022/03/10 09:12:12;;;;;;;6.60;3.08;;;;;;;1.56;43.63;99935.23;1667920;85;21058;-82
2022/03/10 09:17:42;;;;;;;6.25;3.10;;;;;;;1.71;47.07;99940.74;1688495;79;21103;-86
2022/03/10 09:20:13;;;;;;;6.60;3.17;;;;;;;1.94;48.10;99943.83;1680679;85;21091;-83
2022/03/10 09:22:38;;;;;;;5.85;2.70;;;;;;;2.08;45.80;99944.15;1676939;82;21029;-83
2022/03/10 09:25:08;;;;;;;6.60;2.83;;;;;;;2.10;45.99;99949.33;1671091;84;21074;-83
2022/03/10 09:27:34;;;;;;;13.70;3.85;;;;;;;2.29;45.35;99942.88;1686437;83;21033;-85
2022/03/10 09:30:21;;;;;;;7.37;3.08;;;;;;;2.51;46.96;99939.11;1696526;83;21025;-86
2022/03/10 09:35:29;;;;;;;8.18;2.98;;;;;;;3.11;45.84;99942.85;1886454;75;22391;-91
2022/03/10 09:37:56;;;;;;;7.83;3.72;;;;;;;3.28;46.26;99953.03;1806539;77;21093;-88
2022/03/10 09:40:23;;;;;;;5.85;2.98;;;;;;;3.34;45.23;99949.28;1779725;79;21584;-90
2022/03/10 09:42:49;;;;;;;11.08;4.47;;;;;;;3.50;43.46;99952.09;1744472;80;20975;-83
2022/03/10 09:45:18;;;;;;;11.53;5.12;;;;;;;3.58;43.41;99950.13;1759597;79;21065;-87
2022/03/10 09:47:47;;;;;;;6.83;3.33;;;;;;;3.80;44.43;99949.19;1771835;81;21070;-84
2022/03/10 09:50:17;;;;;;;7.65;3.62;;;;;;;4.01;43.22;99952.50;1779857;79;21034;-84
2022/03/10 09:52:46;;;;;;;7.78;3.33;;;;;;;4.22;44.91;99954.53;1808820;78;20937;-85
2022/03/10 09:55:15;;;;;;;6.87;3.22;;;;;;;4.28;42.83;99949.91;1783613;79;20985;-85
2022/03/10 09:57:43;;;;;;;6.35;3.20;;;;;;;4.31;41.41;99953.36;1771715;81;21037;-85
2022/03/10 10:00:14;;;;;;;4.58;2.35;;;;;;;4.53;42.00;99957.09;1773623;79;21062;-84
2022/03/10 10:02:44;;;;;;;5.05;2.37;;;;;;;4.68;41.39;99958.16;1763268;80;21034;-84
2022/03/10 10:05:39;;;;;;;7.28;2.40;;;;;;;4.80;36.24;99962.16;1758761;81;21030;-84
2022/03/10 10:08:09;;;;;;;;;;;;;;;4.96;41.08;99957.63;1783433;79;21529;-85
2022/03/10 10:10:43;;;;;;;6.17;2.52;;;;;;;5.17;37.18;99957.41;1776118;81;20118;-83
2022/03/10 10:13:27;;;;;;;;;;;;;;;5.29;36.69;99954.98;1784751;79;20987;-84
2022/03/10 10:16:05;;;;;;;;;;;;;;;5.33;38.56;99957.14;1755582;81;20425;-84
2022/03/10 10:18:34;;;;;;;6.62;2.77;;;;;;;5.40;36.69;99954.22;1770741;81;20115;-86
2022/03/10 10:21:02;;;;;;;6.33;2.87;;;;;;;5.47;37.87;99955.98;1774407;81;21038;-85
2022/03/10 10:23:32;;;;;;;6.90;2.72;;;;;;;5.54;38.93;99955.20;1775630;80;21025;-85
2022/03/10 10:26:04;;;;;;;5.30;2.67;;;;;;;5.31;36.28;99949.81;1750517;78;21082;-86
2022/03/10 10:28:35;;;;;;;4.90;2.72;;;;;;;5.34;39.57;99953.30;1713742;83;20979;-85
2022/03/10 10:31:16;;;;;;;6.80;3.45;;;;;;;5.08;37.42;99963.34;1725779;79;21039;-90
2022/03/10 10:34:02;;;;;;;6.08;3.17;;;;;;;4.66;33.54;99962.42;1751349;81;21086;-83
2022/03/10 10:36:32;;;;;;;7.53;2.60;;;;;;;4.74;35.36;99959.52;1685790;83;20987;-83
2022/03/10 10:39:16;;;;;;;5.42;2.70;;;;;;;4.58;33.53;99959.74;1718867;83;21073;-84
2022/03/10 10:41:45;;;;;;;5.33;2.65;;;;;;;4.52;34.92;99961.81;1728117;82;21036;-83
2022/03/10 10:44:19;;;;;;;10.35;3.50;;;;;;;4.42;34.99;99968.09;1724302;83;21046;-83
2022/03/10 10:46:49;;;;;;;12.40;3.80;;;;;;;4.36;35.69;99976.19;1696696;84;21048;-81
2022/03/10 10:49:22;;;;;;;7.12;3.30;;;;;;;4.24;35.50;99966.12;1677472;84;21047;-82
2022/03/10 10:51:55;;;;;;;13.13;3.45;;;;;;;4.11;36.92;99975.38;1678988;84;21031;-82
2022/03/10 10:54:25;;;;;;;7.22;3.40;;;;;;;3.95;35.96;99982.00;1687577;84;21059;-82
2022/03/10 10:57:06;;;;;;;6.50;3.20;;;;;;;3.78;37.28;99975.31;1723344;82;21021;-82
2022/03/10 10:59:39;;;;;;;8.98;3.50;;;;;;;3.74;37.08;99979.92;1723309;83;20956;-82
2022/03/10 11:02:12;;;;;;;7.50;3.30;;;;;;;3.67;36.87;99973.83;1717994;83;21060;-82
2022/03/10 11:04:51;;;;;;;7.37;3.07;;;;;;;3.60;37.73;99980.97;1734903;82;21079;-82
2022/03/10 11:07:22;;;;;;;5.28;2.90;;;;;;;3.62;38.56;99978.05;1734010;83;21385;-83
2022/03/10 11:09:52;;;;;;;6.65;3.12;;;;;;;3.75;39.27;99987.67;1705515;82;21499;-83
2022/03/10 11:12:19;;;;;;;9.25;3.80;;;;;;;3.98;39.56;99982.92;1714169;83;21003;-82
2022/03/10 11:14:48;;;;;;;7.03;3.47;;;;;;;4.19;39.16;99988.80;1724241;82;21099;-83
2022/03/10 11:17:18;;;;;;;5.92;3.02;;;;;;;4.01;38.02;99980.80;1722292;83;21018;-84
2022/03/10 11:19:49;;;;;;;7.40;3.35;;;;;;;3.84;36.94;99980.55;1724587;82;21011;-83
2022/03/10 11:22:33;;;;;;;8.03;2.85;;;;;;;3.70;37.89;99979.03;1723356;83;21053;-84
2022/03/10 11:25:44;;;;;;;8.15;4.03;;;;;;;3.79;39.06;99975.73;1737382;82;21015;-83
2022/03/10 11:28:16;;;;;;;7.20;3.17;;;;;;;3.72;38.42;99973.89;1707703;82;21006;-83
2022/03/10 11:30:50;;;;;;;7.00;3.60;;;;;;;3.94;38.24;99981.14;1718180;82;21195;-84
2022/03/10 11:33:17;;;;;;;12.07;4.60;;;;;;;4.07;37.56;99977.03;1726116;83;21047;-83
2022/03/10 11:35:47;;;;;;;11.00;4.65;;;;;;;4.17;38.51;99981.91;1730423;82;21032;-83
2022/03/10 11:38:16;;;;;;;16.32;5.47;;;;;;;4.41;39.72;99977.95;1711312;81;21003;-85
2022/03/10 11:41:00;;;;;;;8.75;3.95;;;;;;;4.54;39.76;99976.86;1731006;82;21011;-83
2022/03/10 11:43:33;;;;;;;10.25;5.00;;;;;;;4.79;39.45;99978.45;1724073;82;20979;-82
2022/03/10 11:46:27;;;;;;;7.30;3.72;;;;;;;5.30;38.78;99974.75;1730874;82;21042;-83
2022/03/10 11:49:12;;;;;;;14.45;3.52;;;;;;;6.10;37.28;99972.89;1736276;82;21030;-83
2022/03/10 11:51:56;;;;;;;8.58;3.77;;;;;;;7.35;39.12;99966.56;1743203;82;21547;-83
2022/03/10 11:54:30;;;;;;;8.48;3.42;;;;;;;8.52;38.41;99961.81;1732539;81;21034;-85
2022/03/10 11:57:03;;;;;;;9.38;4.37;;;;;;;8.98;31.18;99964.22;1697339;84;21064;-87
2022/03/10 11:59:38;;;;;;;6.70;3.95;;;;;;;9.13;35.87;99976.23;1687437;84;21613;-82
2022/03/10 12:02:05;;;;;;;11.55;4.17;;;;;;;7.63;35.02;99967.89;1675629;84;21090;-81
2022/03/10 12:04:40;;;;;;;8.15;3.77;;;;;;;6.79;36.16;99971.14;1685538;84;20970;-81
2022/03/10 12:07:16;;;;;;;6.55;3.83;;;;;;;6.14;33.90;99966.03;1726123;81;21102;-88